Gloster, Louisiana
Current Conditions -  °F | °C
As of 3:56 PM on Sunday 25 Jan 2015 (Local Time) from KSHV Reporting Station
Few Clouds Few Clouds  
Wind Chill: 65°   Ceiling: Unl
Heat Index: 65°   Visibility: 10mi
Dew Point: 30°   Wind: 25mph
Humidity: 27%   Direction: 300°WNW
Pressure: 29.91"   Gusts: 40mph
Location:  32.19°N, 93.81°W
Report Text: KSHV 252156Z 30022G35KT 10SM FEW060 FEW290 18/M01 A2991 RMK AO2 PK WND 30035/2148 SLP128 T01831011
Loading
Personal Weather Stations






























Interactive Weather Map New forecast layout! Learn more

10-Day Weather Forecast

Advertisements
Track Severe Weather on mobile